Kezdőlap
METAR-TAF:

METAR-TAF

Repülőterek :

Gagetown, Új Brunswick, Kanada

földrajzi szélesség: 45-50N, földrajzi hosszúság: 066-26W, magasság: 51 m

Jelenlegi meteorológiai megfigyelések

A jelentés 36 perccel ezelõtt készült, 22:00 UTC
Déli szél 6 kt, déli és délnyugati között változik
Hőmérséklet 11°C
Páratartalom 87%
Légköri nyomás 1019 hPa
Látótávolság: 14.5 km
Borult 3600 lábon
Borult 5000 lábon

METAR: CYCX 192200Z AUTO 19006KT 170V230 9SM OVC036 OVC050 11/09 A3008 RMK SLP188

Idő: 19:36 (22:36 UTC)


TAF: hiányzik

Meteorológiai megfigyelések és előrejelzések több, mint 4000 repülőtéren (METAR és TAF jelentéseket).

A térképen piros és sárga pontok jelzik az elérhető meteorológiai állomásokat.

Mozgassa az egeret a pont fölött, hogy megjelenjen az állomás neve.

Azután kattintson az időjárási megfigyelések és előrejelzések megtekintéséhez.

A térkép megváltoztatása: kattintson a fekete keresztel jelölt zöld gombra ráközelítéshez, a vonallal jelölt zöld gombra távolításhoz, vagy a zöld nyilakra a szomszédos térképek eléréséhez.


METAR-TAF: